Terminal Aerodrome Forecast
Issued by NWS

Home | Current Version | Previous Version | Text Only | Print | Product List | Glossary Off
Versions: 1 2 3 4 5 6 7 8 9 10 11

793
FTUS43 KGRB 250520
TAFAUW
TAF
KAUW 250520Z 2506/2606 14010G17KT P6SM BKN120 WS010/17040KT
     FM251100 14008KT P6SM BKN150
     FM251800 16010G16KT P6SM BKN080
     FM252200 13009KT P6SM -SHRA BKN035 OVC070
     FM260200 09008KT 6SM -SHRA BR SCT015 OVC035
      TEMPO 2603/2606 4SM SHRA BR OVC015=

USA.gov is the U.S. government's official web portal to all federal, state and local government web resources and services.